createdAt,value
2022-07-29T00:02:04.096Z,47.94
2022-07-29T00:05:06.704Z,47.55
2022-07-29T00:08:12.525Z,47.82
2022-07-29T00:11:14.974Z,47.95
2022-07-29T00:14:17.489Z,47.95
2022-07-29T00:17:20.068Z,47.86
2022-07-29T00:20:22.325Z,48.05
2022-07-29T00:23:24.560Z,48.75
2022-07-29T00:26:28.775Z,48.59
2022-07-29T00:29:33.940Z,48.38
2022-07-29T00:32:36.611Z,49.08
2022-07-29T00:35:45.126Z,48.88
2022-07-29T00:38:49.009Z,49.29
2022-07-29T00:41:51.444Z,49.02
2022-07-29T00:44:53.685Z,48.98
2022-07-29T00:47:55.905Z,49.38
2022-07-29T00:50:59.608Z,49.66
2022-07-29T00:54:01.901Z,49.76
2022-07-29T00:57:04.241Z,50.06
2022-07-29T01:00:13.583Z,50.52
2022-07-29T01:03:15.808Z,50.80
2022-07-29T01:06:19.494Z,51.10
2022-07-29T01:09:34.467Z,51.65
2022-07-29T01:12:46.430Z,51.90
2022-07-29T01:15:56.922Z,52.71
2022-07-29T01:19:09.169Z,52.83
2022-07-29T01:22:27.541Z,53.31
2022-07-29T01:25:35.689Z,53.18
2022-07-29T01:29:07.512Z,53.23
2022-07-29T01:32:27.498Z,52.85
2022-07-29T01:35:36.664Z,53.76
2022-07-29T01:38:40.699Z,55.02
2022-07-29T01:41:50.618Z,55.42
2022-07-29T01:44:58.494Z,55.74
2022-07-29T01:48:06.300Z,54.83
2022-07-29T01:51:22.046Z,54.43
2022-07-29T01:54:38.575Z,54.15
2022-07-29T01:57:41.875Z,54.97
2022-07-29T02:00:46.220Z,55.39
2022-07-29T02:03:50.129Z,54.42
2022-07-29T02:06:54.163Z,55.54
2022-07-29T02:09:57.146Z,56.26
2022-07-29T02:12:59.915Z,57.71
2022-07-29T02:16:03.902Z,58.83
2022-07-29T02:19:07.801Z,59.28
2022-07-29T02:22:10.514Z,59.78
2022-07-29T02:25:14.037Z,60.04
2022-07-29T02:28:17.514Z,60.86
2022-07-29T02:31:23.391Z,60.89
2022-07-29T02:34:26.388Z,60.43
2022-07-29T02:37:30.173Z,60.41
2022-07-29T02:40:34.828Z,60.52
2022-07-29T02:43:37.276Z,61.39
2022-07-29T02:46:53.478Z,60.99
2022-07-29T02:49:59.184Z,61.45
2022-07-29T02:53:17.399Z,63.39
2022-07-29T02:56:25.359Z,63.38
2022-07-29T02:59:29.495Z,62.95
2022-07-29T03:02:35.755Z,63.70
2022-07-29T03:05:38.300Z,62.34
2022-07-29T03:08:41.491Z,62.68
2022-07-29T03:11:49.666Z,64.63
2022-07-29T03:14:52.673Z,64.59
2022-07-29T03:17:56.598Z,65.79
2022-07-29T03:20:58.988Z,66.30
2022-07-29T03:24:01.193Z,66.23
2022-07-29T03:27:04.893Z,65.58
2022-07-29T03:30:08.908Z,64.53
2022-07-29T03:33:13.406Z,64.21
2022-07-29T03:36:16.053Z,63.37
2022-07-29T03:39:23.670Z,62.99
2022-07-29T03:42:33.835Z,64.33
2022-07-29T03:45:36.956Z,64.42
2022-07-29T03:48:43.666Z,65.35
2022-07-29T03:51:45.938Z,64.72
2022-07-29T03:54:48.613Z,64.50
2022-07-29T03:57:51.142Z,64.09
2022-07-29T04:00:54.886Z,63.65
2022-07-29T04:03:57.786Z,63.92
2022-07-29T04:07:00.083Z,62.37
2022-07-29T04:10:02.324Z,61.96
2022-07-29T04:13:04.654Z,60.06
2022-07-29T04:16:06.931Z,59.44
2022-07-29T04:19:09.266Z,58.13
2022-07-29T04:22:11.582Z,56.68
2022-07-29T04:25:13.803Z,56.58
2022-07-29T04:28:16.040Z,55.10
2022-07-29T04:31:23.815Z,55.45
2022-07-29T04:34:28.284Z,53.70
2022-07-29T04:37:30.650Z,54.19
2022-07-29T04:40:34.137Z,52.40
2022-07-29T04:43:37.104Z,53.42
2022-07-29T04:46:39.515Z,54.72
2022-07-29T04:49:41.829Z,53.04
2022-07-29T04:52:44.117Z,51.17
2022-07-29T04:55:46.476Z,50.01
2022-07-29T04:58:48.680Z,48.19
2022-07-29T05:01:51.000Z,49.01
2022-07-29T05:04:53.263Z,50.04
2022-07-29T05:07:56.231Z,48.46
2022-07-29T05:10:58.499Z,47.71
2022-07-29T05:14:15.051Z,48.83
2022-07-29T05:17:18.034Z,48.07
2022-07-29T05:20:20.808Z,48.17
2022-07-29T05:23:23.012Z,48.75
2022-07-29T05:26:25.303Z,48.43
2022-07-29T05:29:42.958Z,48.26
2022-07-29T05:32:48.601Z,48.27
2022-07-29T05:35:50.784Z,48.09
2022-07-29T05:38:56.098Z,47.73
2022-07-29T05:41:58.338Z,47.39
2022-07-29T05:45:00.843Z,47.23
2022-07-29T05:48:03.091Z,48.93
2022-07-29T05:51:06.009Z,49.78
2022-07-29T05:54:08.254Z,50.53
2022-07-29T05:57:19.813Z,51.54
2022-07-29T06:00:22.090Z,50.90
2022-07-29T06:03:24.279Z,50.50
2022-07-29T06:06:26.545Z,50.83
2022-07-29T06:09:29.328Z,49.59
2022-07-29T06:12:31.577Z,47.86
2022-07-29T06:15:34.485Z,47.01
2022-07-29T06:18:36.761Z,47.80
2022-07-29T06:21:48.328Z,46.21
2022-07-29T06:24:50.881Z,43.87
2022-07-29T06:27:53.319Z,43.30
2022-07-29T06:30:55.591Z,43.40
2022-07-29T06:33:57.865Z,41.42
2022-07-29T06:37:00.626Z,40.79
2022-07-29T06:40:21.366Z,39.98
2022-07-29T06:43:23.516Z,40.56
2022-07-29T06:46:28.790Z,41.55
2022-07-29T06:49:31.137Z,39.60
2022-07-29T06:52:33.518Z,38.70
2022-07-29T06:55:35.781Z,39.83
2022-07-29T06:58:37.969Z,38.86
2022-07-29T07:01:42.988Z,38.26
2022-07-29T07:04:45.299Z,36.54
2022-07-29T07:07:47.604Z,36.74
2022-07-29T07:10:50.217Z,36.02
2022-07-29T07:13:52.735Z,38.00
2022-07-29T07:16:55.028Z,36.29
2022-07-29T07:19:57.296Z,35.70
2022-07-29T07:22:59.523Z,36.91
2022-07-29T07:26:01.859Z,36.78
2022-07-29T07:29:04.056Z,37.35
2022-07-29T07:32:06.439Z,38.83
2022-07-29T07:35:10.517Z,39.54
2022-07-29T07:38:12.806Z,39.69
2022-07-29T07:41:15.080Z,38.34
2022-07-29T07:44:17.814Z,37.40
2022-07-29T07:47:24.561Z,36.21
2022-07-29T07:50:30.292Z,35.52
2022-07-29T07:53:32.700Z,36.58
2022-07-29T07:56:35.500Z,35.57
2022-07-29T07:59:37.963Z,35.83
2022-07-29T08:02:40.865Z,35.87
2022-07-29T08:05:43.928Z,36.47
2022-07-29T08:08:46.223Z,36.39
2022-07-29T08:11:52.308Z,34.82
2022-07-29T08:14:55.139Z,34.42
2022-07-29T08:17:57.370Z,35.45
2022-07-29T08:20:59.781Z,34.57
2022-07-29T08:24:20.699Z,34.93
2022-07-29T08:27:42.584Z,33.86
2022-07-29T08:30:45.601Z,33.38
2022-07-29T08:33:47.927Z,32.91
2022-07-29T08:36:50.248Z,35.03
2022-07-29T08:39:53.709Z,35.80
2022-07-29T08:42:55.986Z,34.38
2022-07-29T08:45:58.376Z,32.88
2022-07-29T08:49:01.009Z,32.78
2022-07-29T08:52:03.755Z,32.82
2022-07-29T08:55:10.654Z,32.90
2022-07-29T08:58:15.764Z,31.84
2022-07-29T09:01:23.109Z,33.64
2022-07-29T09:04:38.038Z,33.40
2022-07-29T09:07:40.480Z,30.65
2022-07-29T09:10:42.964Z,31.31
2022-07-29T09:13:45.321Z,30.15
2022-07-29T09:16:57.657Z,29.81
2022-07-29T09:20:10.091Z,29.69
2022-07-29T09:23:12.353Z,30.93
2022-07-29T09:26:29.414Z,30.47
2022-07-29T09:29:36.148Z,28.93
2022-07-29T09:33:01.728Z,29.59
2022-07-29T09:36:08.681Z,27.99
2022-07-29T09:39:11.372Z,28.60
2022-07-29T09:42:14.453Z,29.39
2022-07-29T09:45:33.811Z,27.66
2022-07-29T09:48:36.127Z,26.74
2022-07-29T09:51:38.912Z,27.01
2022-07-29T09:54:41.373Z,26.34
2022-07-29T09:57:44.675Z,27.34
2022-07-29T10:00:48.336Z,27.48
2022-07-29T10:03:54.000Z,26.63
2022-07-29T10:07:04.444Z,26.23
2022-07-29T10:10:07.423Z,26.53
2022-07-29T10:13:15.769Z,26.87
2022-07-29T10:16:19.033Z,27.21
2022-07-29T10:19:21.421Z,28.41
2022-07-29T10:22:51.401Z,28.72
2022-07-29T10:25:47.014Z,28.21
2022-07-29T10:28:49.264Z,28.55
2022-07-29T10:31:54.552Z,30.01
2022-07-29T10:35:09.757Z,29.07
2022-07-29T10:38:34.311Z,29.85
2022-07-29T10:42:20.019Z,30.21
2022-07-29T10:45:22.685Z,29.10
2022-07-29T10:48:25.016Z,29.43
2022-07-29T10:51:59.099Z,28.35
2022-07-29T10:55:02.976Z,28.26
2022-07-29T10:58:22.219Z,27.19
2022-07-29T11:01:37.136Z,26.37
2022-07-29T11:04:45.933Z,26.21
2022-07-29T11:08:19.619Z,26.73
2022-07-29T11:11:29.827Z,26.30
2022-07-29T11:15:01.500Z,27.22
2022-07-29T11:18:04.089Z,27.22
2022-07-29T11:21:54.889Z,27.84
2022-07-29T11:25:17.778Z,27.86
2022-07-29T11:28:25.124Z,27.93
2022-07-29T11:31:38.831Z,28.08
2022-07-29T11:34:42.457Z,27.26
2022-07-29T11:37:52.751Z,27.92
2022-07-29T11:41:18.870Z,28.14
2022-07-29T11:45:04.353Z,28.50
2022-07-29T11:48:31.800Z,28.39
2022-07-29T11:51:34.784Z,28.40
2022-07-29T11:54:57.144Z,28.61
2022-07-29T11:58:04.007Z,29.14
2022-07-29T12:01:07.354Z,29.62
2022-07-29T12:04:09.624Z,28.23
2022-07-29T12:07:15.643Z,27.37
2022-07-29T12:10:19.736Z,26.15
2022-07-29T12:13:39.714Z,26.75
2022-07-29T12:16:41.994Z,26.13
2022-07-29T12:19:44.633Z,26.96
2022-07-29T12:22:49.472Z,27.76
2022-07-29T12:25:51.758Z,27.87
2022-07-29T12:28:56.232Z,27.52
2022-07-29T12:31:59.777Z,27.37
2022-07-29T12:35:08.731Z,28.47
2022-07-29T12:38:12.786Z,28.64
2022-07-29T12:41:15.143Z,26.79
2022-07-29T12:44:17.384Z,25.32
2022-07-29T12:47:20.481Z,24.61
2022-07-29T12:50:26.289Z,25.77
2022-07-29T12:53:29.468Z,25.23
2022-07-29T12:56:47.060Z,24.98
2022-07-29T13:00:12.602Z,24.12
2022-07-29T13:03:14.859Z,23.32
2022-07-29T13:06:49.624Z,22.79
2022-07-29T13:09:53.556Z,22.84
2022-07-29T13:13:07.341Z,23.06
2022-07-29T13:16:09.685Z,23.26
2022-07-29T13:19:13.083Z,24.07
2022-07-29T13:22:17.856Z,24.00
2022-07-29T13:25:30.839Z,23.58
2022-07-29T13:28:33.081Z,23.30
2022-07-29T13:31:35.333Z,23.15
2022-07-29T13:34:37.554Z,23.05
2022-07-29T13:37:39.920Z,22.53
2022-07-29T13:40:42.635Z,22.71
2022-07-29T13:43:44.956Z,23.37
2022-07-29T13:46:47.194Z,23.57
2022-07-29T13:49:49.553Z,23.37
2022-07-29T13:52:52.282Z,22.92
2022-07-29T13:55:54.967Z,23.01
2022-07-29T13:58:58.252Z,22.38
2022-07-29T14:02:01.035Z,22.61
2022-07-29T14:05:07.982Z,22.81
2022-07-29T14:08:10.768Z,23.05
2022-07-29T14:11:13.014Z,23.40
2022-07-29T14:14:15.291Z,23.57
2022-07-29T14:17:17.995Z,23.48
2022-07-29T14:20:20.476Z,24.11
2022-07-29T14:23:22.677Z,25.02
2022-07-29T14:26:25.295Z,24.49
2022-07-29T14:29:35.259Z,24.09
2022-07-29T14:32:40.610Z,24.81
2022-07-29T14:35:42.877Z,25.38
2022-07-29T14:38:45.121Z,24.83
2022-07-29T14:41:47.315Z,24.02
2022-07-29T14:44:50.301Z,24.05
2022-07-29T14:47:56.382Z,23.47
2022-07-29T14:51:04.569Z,24.39
2022-07-29T14:54:07.306Z,25.80
2022-07-29T14:57:09.738Z,24.42
2022-07-29T15:00:12.502Z,23.98
2022-07-29T15:03:23.947Z,24.05
2022-07-29T15:06:27.403Z,23.78
2022-07-29T15:09:29.726Z,23.37
2022-07-29T15:12:32.778Z,23.88
2022-07-29T15:15:35.032Z,24.15
2022-07-29T15:18:39.248Z,23.93
2022-07-29T15:21:48.656Z,23.82
2022-07-29T15:24:51.593Z,23.88
2022-07-29T15:27:55.657Z,24.36
2022-07-29T15:31:01.417Z,23.94
2022-07-29T15:34:05.912Z,24.36
2022-07-29T15:37:08.582Z,23.67
2022-07-29T15:40:11.839Z,23.36
2022-07-29T15:43:14.073Z,23.43
2022-07-29T15:46:36.293Z,23.42
2022-07-29T15:49:48.560Z,23.42
2022-07-29T15:52:51.962Z,23.75
2022-07-29T15:55:54.275Z,23.91
2022-07-29T15:58:56.575Z,24.07
2022-07-29T16:01:59.469Z,24.22
2022-07-29T16:05:01.705Z,24.04
2022-07-29T16:08:03.987Z,24.19
2022-07-29T16:11:06.254Z,24.54
2022-07-29T16:14:09.208Z,24.76
2022-07-29T16:17:14.775Z,25.00
2022-07-29T16:20:17.575Z,25.05
2022-07-29T16:23:19.836Z,25.74
2022-07-29T16:26:22.058Z,25.61
2022-07-29T16:29:24.335Z,25.69
2022-07-29T16:32:26.603Z,26.00
2022-07-29T16:35:39.051Z,25.86
2022-07-29T16:38:47.369Z,26.09
2022-07-29T16:41:49.926Z,26.31
2022-07-29T16:44:52.193Z,27.03
2022-07-29T16:48:00.186Z,26.66
2022-07-29T16:51:03.603Z,27.39
2022-07-29T16:54:05.997Z,27.78
2022-07-29T16:57:08.281Z,27.57
2022-07-29T17:00:11.108Z,27.61
2022-07-29T17:03:13.633Z,27.33
2022-07-29T17:06:15.880Z,27.24
2022-07-29T17:09:18.196Z,26.88
2022-07-29T17:12:20.417Z,26.77
2022-07-29T17:15:22.768Z,26.78
2022-07-29T17:18:24.973Z,27.84
2022-07-29T17:21:27.558Z,28.22
2022-07-29T17:24:29.800Z,28.78
2022-07-29T17:27:32.449Z,27.60
2022-07-29T17:30:34.706Z,28.08
2022-07-29T17:33:37.086Z,29.04
2022-07-29T17:36:39.444Z,29.37
2022-07-29T17:39:42.849Z,29.85
2022-07-29T17:42:45.110Z,29.13
2022-07-29T17:45:49.846Z,29.26
2022-07-29T17:48:56.937Z,29.15
2022-07-29T17:52:01.123Z,29.81
2022-07-29T17:55:03.776Z,30.38
2022-07-29T17:58:08.859Z,30.92
2022-07-29T18:01:11.196Z,31.87
2022-07-29T18:04:15.312Z,31.81
2022-07-29T18:07:17.743Z,31.48
2022-07-29T18:10:20.001Z,32.24
2022-07-29T18:13:22.239Z,32.36
2022-07-29T18:16:24.889Z,34.45
2022-07-29T18:19:27.252Z,35.71
2022-07-29T18:22:29.454Z,33.95
2022-07-29T18:25:31.701Z,33.71
2022-07-29T18:28:34.184Z,33.92
2022-07-29T18:31:36.548Z,33.69
2022-07-29T18:34:38.798Z,33.89
2022-07-29T18:38:01.383Z,35.04
2022-07-29T18:41:03.348Z,35.01
2022-07-29T18:44:05.566Z,35.69
2022-07-29T18:47:07.797Z,35.72
2022-07-29T18:50:14.705Z,35.70
2022-07-29T18:53:18.054Z,35.40
2022-07-29T18:56:20.989Z,35.64
2022-07-29T18:59:23.298Z,36.05
2022-07-29T19:02:25.947Z,37.20
2022-07-29T19:05:28.257Z,37.72
2022-07-29T19:08:30.515Z,38.23
2022-07-29T19:11:32.773Z,37.73
2022-07-29T19:14:35.141Z,37.53
2022-07-29T19:17:38.684Z,37.39
2022-07-29T19:20:42.023Z,37.91
2022-07-29T19:24:06.024Z,38.38
2022-07-29T19:27:07.781Z,39.19
2022-07-29T19:30:10.499Z,39.43
2022-07-29T19:33:14.598Z,39.31
2022-07-29T19:36:17.464Z,38.94
2022-07-29T19:39:19.695Z,39.32
2022-07-29T19:42:37.383Z,39.45
2022-07-29T19:45:39.741Z,40.57
2022-07-29T19:48:41.992Z,41.74
2022-07-29T19:51:44.269Z,42.54
2022-07-29T19:54:46.544Z,42.48
2022-07-29T19:57:49.140Z,42.68
2022-07-29T20:00:51.441Z,42.84
2022-07-29T20:03:54.026Z,42.89
2022-07-29T20:07:01.329Z,43.35
2022-07-29T20:10:04.921Z,43.73
2022-07-29T20:13:07.161Z,44.14
2022-07-29T20:16:09.503Z,45.23
2022-07-29T20:19:11.985Z,46.81
2022-07-29T20:22:14.599Z,47.81
2022-07-29T20:25:23.959Z,49.46
2022-07-29T20:28:26.225Z,50.93
2022-07-29T20:31:30.633Z,52.78
2022-07-29T20:34:33.150Z,53.63
2022-07-29T20:37:52.273Z,53.86
2022-07-29T20:40:58.905Z,54.86
2022-07-29T20:44:02.730Z,55.88
2022-07-29T20:47:05.039Z,56.19
2022-07-29T20:50:07.691Z,56.78
2022-07-29T20:53:09.880Z,58.32
2022-07-29T20:56:12.598Z,59.23
2022-07-29T20:59:14.864Z,59.76
2022-07-29T21:02:17.337Z,61.27
2022-07-29T21:05:19.866Z,63.00
2022-07-29T21:08:22.276Z,62.74
2022-07-29T21:11:43.219Z,63.43
2022-07-29T21:14:48.016Z,62.82
2022-07-29T21:17:52.520Z,62.60
2022-07-29T21:20:55.303Z,62.68
2022-07-29T21:23:57.526Z,63.51
2022-07-29T21:27:21.224Z,63.19
2022-07-29T21:30:23.899Z,62.87
2022-07-29T21:33:27.779Z,62.54
2022-07-29T21:39:52.161Z,64.60
2022-07-29T21:42:54.352Z,66.93
2022-07-29T21:45:57.682Z,66.21
2022-07-29T21:48:59.982Z,65.88
2022-07-29T21:52:02.306Z,68.53
2022-07-29T21:55:04.884Z,69.08
2022-07-29T21:58:07.968Z,68.82
2022-07-29T22:01:10.187Z,68.88
2022-07-29T22:04:12.383Z,69.24
2022-07-29T22:07:14.613Z,69.83
2022-07-29T22:10:17.118Z,70.79
2022-07-29T22:13:19.315Z,71.15
2022-07-29T22:16:21.587Z,72.29
2022-07-29T22:19:27.691Z,72.74
2022-07-29T22:22:33.162Z,72.84
2022-07-29T22:25:35.576Z,73.22
2022-07-29T22:28:37.788Z,73.75
2022-07-29T22:31:39.968Z,74.44
2022-07-29T22:34:42.119Z,74.88
2022-07-29T22:37:44.405Z,73.90
2022-07-29T22:40:48.644Z,74.72
2022-07-29T22:43:52.713Z,73.64
2022-07-29T22:46:55.937Z,74.35
2022-07-29T22:49:58.138Z,76.43
2022-07-29T22:53:00.287Z,77.53
2022-07-29T22:56:02.641Z,77.61
2022-07-29T22:59:04.910Z,77.76
2022-07-29T23:02:07.093Z,77.08
2022-07-29T23:05:10.458Z,78.26
2022-07-29T23:08:12.724Z,78.95
2022-07-29T23:11:14.884Z,79.53
2022-07-29T23:14:17.065Z,80.20
2022-07-29T23:17:19.304Z,80.31
2022-07-29T23:20:21.546Z,80.83
2022-07-29T23:23:23.801Z,80.02
2022-07-29T23:26:25.949Z,79.01
2022-07-29T23:29:28.166Z,78.38
2022-07-29T23:32:30.410Z,78.14
2022-07-29T23:35:32.923Z,77.34
2022-07-29T23:38:35.224Z,76.84
2022-07-29T23:41:38.053Z,77.66
2022-07-29T23:44:40.230Z,78.06
2022-07-29T23:47:43.028Z,77.08
2022-07-29T23:50:45.185Z,77.08
2022-07-29T23:53:53.482Z,75.85
2022-07-29T23:56:57.938Z,77.09
